Time;durP1;ratioP1;P1;durP2;ratioP2;P2;SDS_P1;SDS_P2;PMS_P1;PMS_P2;Temp;Humidity;BMP_temperature;BMP_pressure;BME280_temperature;BME280_humidity;BME280_pressure;Samples;Min_cycle;Max_cycle;Signal;HPM_P1;HPM_P2
2022/09/10 00:01:15;;;;;;;4.32;2.38;;;17.90;83.10;;;;;;5093407;28;20047;-14
2022/09/10 00:03:42;;;;;;;3.22;2.42;;;17.90;82.80;;;;;;5093333;28;20016;-15
2022/09/10 00:06:08;;;;;;;3.28;2.40;;;17.90;82.60;;;;;;5093386;28;20467;-15
2022/09/10 00:08:35;;;;;;;6.45;3.67;;;17.80;82.40;;;;;;5093053;28;20024;-15
2022/09/10 00:11:05;;;;;;;6.07;3.30;;;17.80;82.40;;;;;;5091616;28;20438;-14
2022/09/10 00:13:32;;;;;;;4.85;3.60;;;17.80;82.50;;;;;;5093575;28;20015;-15
2022/09/10 00:16:02;;;;;;;6.22;3.53;;;17.70;82.50;;;;;;5092976;28;20103;-15
2022/09/10 00:18:28;;;;;;;4.82;3.28;;;17.70;82.60;;;;;;5093076;28;20025;-15
2022/09/10 00:20:56;;;;;;;6.40;3.25;;;17.70;82.60;;;;;;5093049;28;20093;-14
2022/09/10 00:23:24;;;;;;;3.15;2.55;;;17.60;82.50;;;;;;5092914;28;20036;-16
2022/09/10 00:25:54;;;;;;;4.57;2.70;;;17.60;82.50;;;;;;5093206;28;20069;-14
2022/09/10 00:28:22;;;;;;;6.38;3.42;;;17.60;82.50;;;;;;5092596;28;20097;-15
2022/09/10 00:30:50;;;;;;;4.00;2.60;;;17.60;82.50;;;;;;5091402;28;20021;-15
2022/09/10 00:33:17;;;;;;;3.33;2.50;;;17.60;82.60;;;;;;5092873;28;20487;-15
2022/09/10 00:35:44;;;;;;;2.92;2.47;;;17.60;82.50;;;;;;5093132;28;20027;-14
2022/09/10 00:38:11;;;;;;;5.85;2.50;;;17.60;82.60;;;;;;5093101;28;20087;-15
2022/09/10 00:40:38;;;;;;;3.72;2.80;;;17.60;82.60;;;;;;5093074;28;20040;-14
2022/09/10 00:43:14;;;;;;;3.00;2.60;;;17.50;82.60;;;;;;5092563;28;20024;-14
2022/09/10 00:45:42;;;;;;;3.53;2.30;;;17.50;82.60;;;;;;5092730;28;20027;-15
2022/09/10 00:48:19;;;;;;;3.28;2.05;;;17.50;82.60;;;;;;5092630;28;20024;-14
2022/09/10 00:50:47;;;;;;;2.72;2.47;;;17.50;82.60;;;;;;5093056;28;20097;-16
2022/09/10 00:53:17;;;;;;;2.97;2.25;;;17.50;82.60;;;;;;5094945;28;20074;-15
2022/09/10 00:55:49;;;;;;;3.92;2.50;;;17.50;82.60;;;;;;5096735;28;20059;-15
2022/09/10 00:58:18;;;;;;;2.85;2.40;;;17.50;82.60;;;;;;5096342;28;20055;-15
2022/09/10 01:00:44;;;;;;;4.97;2.30;;;17.50;82.60;;;;;;5096512;28;20062;-15
2022/09/10 01:03:14;;;;;;;5.40;2.80;;;17.50;82.50;;;;;;5096036;28;20081;-15
2022/09/10 01:05:44;;;;;;;4.10;2.85;;;17.50;82.40;;;;;;5096793;28;20035;-14
2022/09/10 01:08:15;;;;;;;3.35;2.85;;;17.60;82.50;;;;;;5096418;28;20027;-14
2022/09/10 01:11:03;;;;;;;3.90;2.45;;;17.60;82.40;;;;;;5096088;28;20110;-14
2022/09/10 01:13:32;;;;;;;5.32;2.88;;;17.70;82.40;;;;;;5096082;28;20098;-15
2022/09/10 01:16:17;;;;;;;3.17;2.88;;;17.70;82.40;;;;;;5096024;28;20078;-15
2022/09/10 01:19:07;;;;;;;3.85;2.50;;;17.80;82.60;;;;;;5096327;28;20084;-15
2022/09/10 01:21:43;;;;;;;5.65;2.92;;;17.80;82.50;;;;;;5095926;28;20032;-15
2022/09/10 01:24:22;;;;;;;4.35;2.90;;;17.80;82.50;;;;;;5096296;28;20418;-15
2022/09/10 01:27:06;;;;;;;3.72;2.88;;;17.80;82.50;;;;;;5095744;28;20525;-19
2022/09/10 01:29:48;;;;;;;3.40;3.08;;;17.80;82.50;;;;;;5095347;28;20511;-14
2022/09/10 01:32:28;;;;;;;3.55;2.80;;;17.80;82.60;;;;;;5096075;28;20032;-14
2022/09/10 01:35:09;;;;;;;3.75;2.88;;;17.80;82.50;;;;;;5095655;28;20028;-14
2022/09/10 01:37:38;;;;;;;4.30;2.40;;;17.80;82.50;;;;;;5095883;28;20020;-15
2022/09/10 01:40:06;;;;;;;4.63;2.75;;;17.80;82.60;;;;;;5095964;28;20028;-14
2022/09/10 01:42:32;;;;;;;3.78;3.10;;;17.80;82.60;;;;;;5095906;28;20031;-15
2022/09/10 01:44:58;;;;;;;3.15;2.60;;;17.80;82.70;;;;;;5095155;28;20020;-15
2022/09/10 01:47:54;;;;;;;3.95;2.90;;;17.80;82.60;;;;;;5095393;28;20106;-14
2022/09/10 01:50:21;;;;;;;6.85;3.65;;;17.80;82.70;;;;;;5095296;28;20036;-15
2022/09/10 01:53:05;;;;;;;3.72;2.55;;;17.80;82.80;;;;;;5095273;28;20039;-15
2022/09/10 01:55:55;;;;;;;5.00;3.50;;;17.80;82.80;;;;;;5095762;28;20523;-15
2022/09/10 01:58:42;;;;;;;3.78;2.92;;;17.80;82.80;;;;;;5095159;28;20025;-15
2022/09/10 02:01:26;;;;;;;5.95;3.00;;;17.80;82.90;;;;;;5094739;28;20073;-15
2022/09/10 02:03:58;;;;;;;7.70;4.70;;;17.80;83.00;;;;;;5094387;28;20020;-15
2022/09/10 02:06:28;;;;;;;7.20;3.75;;;17.80;82.90;;;;;;5095360;28;20023;-15
2022/09/10 02:08:57;;;;;;;5.75;3.53;;;17.80;83.00;;;;;;5094785;28;20028;-15
2022/09/10 02:11:23;;;;;;;5.93;3.53;;;17.70;83.00;;;;;;5095404;28;20028;-15
2022/09/10 02:13:51;;;;;;;5.15;3.65;;;17.80;83.20;;;;;;5095079;28;20020;-16
2022/09/10 02:16:20;;;;;;;4.63;3.60;;;17.70;83.80;;;;;;5094774;28;20047;-15
2022/09/10 02:18:48;;;;;;;5.88;3.55;;;17.70;83.90;;;;;;5094748;28;20028;-16
2022/09/10 02:21:14;;;;;;;7.38;4.15;;;17.70;84.30;;;;;;5094738;28;20024;-15
2022/09/10 02:23:47;;;;;;;5.57;4.32;;;17.60;84.20;;;;;;5094908;28;20476;-15
2022/09/10 02:26:14;;;;;;;4.43;3.50;;;17.60;84.60;;;;;;5094659;28;20028;-15
2022/09/10 02:28:44;;;;;;;5.97;3.95;;;17.60;84.50;;;;;;5094494;28;20530;-16
2022/09/10 02:31:10;;;;;;;5.30;3.67;;;17.60;85.00;;;;;;5093141;28;20495;-15
2022/09/10 02:33:36;;;;;;;7.10;5.05;;;17.60;84.60;;;;;;5094929;28;20031;-14
2022/09/10 02:36:02;;;;;;;6.30;4.45;;;17.60;84.30;;;;;;5094445;28;20123;-17
2022/09/10 02:38:29;;;;;;;6.22;3.90;;;17.60;84.40;;;;;;5094612;28;20020;-16
2022/09/10 02:40:57;;;;;;;8.43;3.97;;;17.60;84.40;;;;;;5094153;28;20032;-14
2022/09/10 02:43:26;;;;;;;5.78;3.97;;;17.70;84.40;;;;;;5094347;28;20475;-15
2022/09/10 02:45:59;;;;;;;9.02;5.25;;;17.60;84.40;;;;;;5094337;28;20540;-14
2022/09/10 02:48:26;;;;;;;8.40;3.63;;;17.60;84.40;;;;;;5094430;28;20024;-15
2022/09/10 02:50:53;;;;;;;6.85;4.22;;;17.60;84.50;;;;;;5094080;28;20042;-15
2022/09/10 02:53:19;;;;;;;7.22;4.13;;;17.50;85.40;;;;;;5094402;28;20043;-15
2022/09/10 02:55:47;;;;;;;5.40;3.78;;;17.50;85.20;;;;;;5094679;28;20073;-15
2022/09/10 02:58:15;;;;;;;7.13;4.03;;;17.50;84.80;;;;;;5094015;28;20032;-15
2022/09/10 03:00:41;;;;;;;5.03;4.00;;;17.50;84.80;;;;;;5093993;28;20099;-15
2022/09/10 03:03:08;;;;;;;6.72;4.82;;;17.60;85.40;;;;;;5094082;28;20055;-14
2022/09/10 03:05:37;;;;;;;7.45;4.65;;;17.60;85.10;;;;;;5094152;28;20077;-15
2022/09/10 03:08:04;;;;;;;3.88;3.28;;;17.60;85.10;;;;;;5093891;28;20064;-15
2022/09/10 03:10:30;;;;;;;7.78;4.75;;;17.60;84.80;;;;;;5093920;28;20024;-15
2022/09/10 03:12:58;;;;;;;8.73;5.13;;;17.60;84.70;;;;;;5093846;28;20043;-15
2022/09/10 03:15:24;;;;;;;6.18;3.90;;;17.70;84.90;;;;;;5093662;28;20101;-15
2022/09/10 03:17:51;;;;;;;7.28;4.72;;;17.70;84.60;;;;;;5093912;28;20573;-16
2022/09/10 03:20:17;;;;;;;7.88;5.35;;;17.70;84.60;;;;;;5093814;28;20016;-14
2022/09/10 03:22:45;;;;;;;7.35;4.43;;;17.80;84.40;;;;;;5093818;28;20181;-14
2022/09/10 03:25:11;;;;;;;7.60;4.63;;;17.80;84.50;;;;;;5093892;28;20032;-15
2022/09/10 03:27:37;;;;;;;7.32;4.63;;;17.80;84.40;;;;;;5093868;28;20378;-15
2022/09/10 03:30:03;;;;;;;5.22;3.85;;;17.80;84.30;;;;;;5093309;28;20110;-14
2022/09/10 03:32:31;;;;;;;5.00;4.00;;;17.80;84.30;;;;;;5093486;28;20038;-15
2022/09/10 03:34:58;;;;;;;5.90;4.10;;;17.80;84.20;;;;;;5093321;28;20016;-15
2022/09/10 03:37:25;;;;;;;7.03;4.63;;;17.80;84.20;;;;;;5094106;28;20077;-15
2022/09/10 03:39:52;;;;;;;8.48;5.03;;;17.80;84.20;;;;;;5093683;28;20024;-15
2022/09/10 03:42:17;;;;;;;8.52;5.45;;;17.80;84.50;;;;;;5093651;28;20031;-15
2022/09/10 03:44:43;;;;;;;9.27;6.68;;;17.70;85.00;;;;;;5093251;28;20028;-15
2022/09/10 03:47:10;;;;;;;7.05;4.78;;;17.60;85.20;;;;;;5093106;28;20024;-15
2022/09/10 03:49:37;;;;;;;7.22;4.20;;;17.60;85.20;;;;;;5093143;28;20040;-16
2022/09/10 03:52:03;;;;;;;6.57;4.50;;;17.50;84.80;;;;;;5093249;28;20542;-16
2022/09/10 03:54:29;;;;;;;6.45;3.90;;;17.50;84.80;;;;;;5093350;28;20023;-15
2022/09/10 03:56:55;;;;;;;7.22;4.75;;;17.40;84.80;;;;;;5092918;28;20069;-14
2022/09/10 03:59:21;;;;;;;6.85;4.40;;;17.40;84.80;;;;;;5092129;28;20048;-16
2022/09/10 04:01:47;;;;;;;6.75;4.50;;;17.40;84.90;;;;;;5093168;28;20064;-15
2022/09/10 04:04:13;;;;;;;6.50;4.25;;;17.30;85.00;;;;;;5093393;28;20024;-15
2022/09/10 04:06:40;;;;;;;5.35;3.90;;;17.20;85.00;;;;;;5093410;28;20036;-15
2022/09/10 04:09:06;;;;;;;6.60;3.85;;;17.20;84.90;;;;;;5091683;28;20024;-16
2022/09/10 04:11:35;;;;;;;6.03;4.13;;;17.20;85.00;;;;;;5093654;28;20020;-16
2022/09/10 04:14:01;;;;;;;7.70;5.05;;;17.10;85.00;;;;;;5093150;28;20028;-15
2022/09/10 04:16:27;;;;;;;9.85;5.82;;;17.10;85.00;;;;;;5093330;28;20035;-15
2022/09/10 04:18:53;;;;;;;9.85;6.38;;;17.00;85.40;;;;;;5093071;28;20455;-15
2022/09/10 04:21:19;;;;;;;8.93;5.90;;;16.90;85.80;;;;;;5093939;28;20031;-16
2022/09/10 04:23:46;;;;;;;7.82;5.00;;;16.90;86.00;;;;;;5093371;28;20498;-14
2022/09/10 04:26:17;;;;;;;7.72;5.00;;;16.80;85.70;;;;;;5092935;28;20063;-15
2022/09/10 04:28:44;;;;;;;6.28;4.57;;;16.80;85.60;;;;;;5096232;28;20036;-14
2022/09/10 04:31:11;;;;;;;7.35;4.50;;;16.80;85.50;;;;;;5096872;28;20111;-15
2022/09/10 04:33:37;;;;;;;7.25;4.47;;;16.80;85.50;;;;;;5097200;28;20055;-15
2022/09/10 04:36:04;;;;;;;6.25;4.07;;;16.80;85.50;;;;;;5096822;28;20024;-16
2022/09/10 04:38:31;;;;;;;6.32;3.58;;;16.80;85.40;;;;;;5096724;28;20031;-15
2022/09/10 04:41:01;;;;;;;6.35;4.32;;;16.80;85.40;;;;;;5096820;28;20122;-17
2022/09/10 04:43:28;;;;;;;7.28;4.57;;;16.70;85.30;;;;;;5097018;28;20024;-15
2022/09/10 04:45:54;;;;;;;6.65;4.60;;;16.70;85.30;;;;;;5096850;28;20491;-15
2022/09/10 04:48:22;;;;;;;6.95;4.50;;;16.70;85.20;;;;;;5096460;28;20035;-15
2022/09/10 04:50:49;;;;;;;8.60;4.40;;;16.60;85.30;;;;;;5095233;28;20054;-20
2022/09/10 04:53:16;;;;;;;8.38;4.40;;;16.50;85.30;;;;;;5096783;28;20098;-14
2022/09/10 04:55:44;;;;;;;6.72;4.60;;;16.50;85.30;;;;;;5096445;28;20032;-15
2022/09/10 04:58:10;;;;;;;7.32;4.07;;;16.40;85.30;;;;;;5096382;28;20495;-15
2022/09/10 05:00:38;;;;;;;7.05;4.47;;;16.40;85.30;;;;;;5096542;28;20024;-16
2022/09/10 05:03:05;;;;;;;5.85;4.03;;;16.40;85.30;;;;;;5096173;28;20020;-15
2022/09/10 05:05:33;;;;;;;5.30;3.58;;;16.40;85.40;;;;;;5096537;28;20021;-15
2022/09/10 05:07:59;;;;;;;8.23;5.18;;;16.30;85.40;;;;;;5096536;28;20535;-15
2022/09/10 05:10:26;;;;;;;5.07;4.00;;;16.30;85.40;;;;;;5096056;28;20495;-16
2022/09/10 05:12:53;;;;;;;6.07;4.13;;;16.30;85.40;;;;;;5096364;28;20488;-16
2022/09/10 05:15:19;;;;;;;7.97;4.95;;;16.20;85.40;;;;;;5095975;28;20030;-15
2022/09/10 05:17:46;;;;;;;4.65;3.50;;;16.20;85.40;;;;;;5094722;28;20031;-17
2022/09/10 05:20:13;;;;;;;7.43;4.53;;;16.20;85.50;;;;;;5095975;28;20027;-15
2022/09/10 05:22:41;;;;;;;7.88;4.13;;;16.20;85.40;;;;;;5094635;28;20116;-15
2022/09/10 05:25:08;;;;;;;5.85;4.10;;;16.20;85.40;;;;;;5095679;28;20380;-14
2022/09/10 05:27:35;;;;;;;7.60;3.95;;;16.20;85.40;;;;;;5095822;28;20024;-15
2022/09/10 05:30:01;;;;;;;6.00;4.30;;;16.20;85.40;;;;;;5095407;28;20044;-16
2022/09/10 05:32:27;;;;;;;7.85;4.45;;;16.30;85.40;;;;;;5095698;28;20036;-15
2022/09/10 05:34:53;;;;;;;6.75;3.90;;;16.40;85.20;;;;;;5095594;28;20020;-16
2022/09/10 05:37:19;;;;;;;5.70;3.72;;;16.50;85.20;;;;;;5094299;28;20479;-16
2022/09/10 05:39:47;;;;;;;5.68;3.70;;;16.50;85.10;;;;;;5095276;28;20483;-15
2022/09/10 05:42:14;;;;;;;6.72;4.47;;;16.60;85.00;;;;;;5096146;28;20367;-17
2022/09/10 05:44:40;;;;;;;8.25;4.60;;;16.70;84.80;;;;;;5095490;28;20502;-16
2022/09/10 05:47:07;;;;;;;8.63;4.38;;;16.80;84.60;;;;;;5095528;28;20028;-15
2022/09/10 05:49:33;;;;;;;5.72;4.10;;;16.90;84.60;;;;;;5095620;28;20047;-15
2022/09/10 05:51:59;;;;;;;10.20;5.72;;;16.90;84.40;;;;;;5095504;28;20479;-15
2022/09/10 05:54:25;;;;;;;7.80;5.63;;;17.00;84.30;;;;;;5095618;28;20111;-17
2022/09/10 05:56:50;;;;;;;9.05;5.72;;;17.10;84.30;;;;;;5095350;28;20024;-17
2022/09/10 05:59:16;;;;;;;10.40;7.47;;;17.20;84.30;;;;;;5095410;28;20031;-18
2022/09/10 06:01:42;;;;;;;11.48;8.23;;;17.30;84.10;;;;;;5095449;28;20024;-16
2022/09/10 06:04:10;;;;;;;16.52;12.43;;;17.40;84.10;;;;;;5095639;28;20581;-16
2022/09/10 06:06:36;;;;;;;12.52;9.68;;;17.40;84.10;;;;;;5095434;28;20040;-15
2022/09/10 06:09:03;;;;;;;10.73;7.35;;;17.50;83.90;;;;;;5094759;28;20028;-15
2022/09/10 06:11:29;;;;;;;9.57;6.05;;;17.60;83.80;;;;;;5095221;28;20065;-15
2022/09/10 06:13:54;;;;;;;7.55;4.80;;;17.70;83.80;;;;;;5095174;28;20024;-15
2022/09/10 06:16:20;;;;;;;7.10;5.10;;;17.80;83.80;;;;;;5094768;28;20028;-15
2022/09/10 06:18:46;;;;;;;8.98;6.30;;;18.00;83.70;;;;;;5094923;28;20024;-15
2022/09/10 06:21:15;;;;;;;7.70;5.65;;;18.10;83.70;;;;;;5094872;28;20052;-15
2022/09/10 06:23:42;;;;;;;5.50;4.40;;;18.20;83.50;;;;;;5094717;28;20075;-15
2022/09/10 06:26:12;;;;;;;8.45;5.82;;;18.40;83.50;;;;;;5094826;28;20032;-15
2022/09/10 06:28:38;;;;;;;6.78;4.30;;;18.50;83.40;;;;;;5094476;28;20036;-15
2022/09/10 06:31:04;;;;;;;8.55;4.85;;;18.70;83.40;;;;;;5093055;28;20115;-15
2022/09/10 06:33:31;;;;;;;7.13;4.80;;;18.80;83.50;;;;;;5093300;28;20055;-15
2022/09/10 06:36:00;;;;;;;5.65;4.18;;;19.00;83.50;;;;;;5094798;28;20115;-15
2022/09/10 06:38:32;;;;;;;5.32;4.20;;;19.20;83.50;;;;;;5094671;28;20027;-15
2022/09/10 06:41:01;;;;;;;6.05;4.28;;;19.50;83.40;;;;;;5094213;28;20032;-15
2022/09/10 06:43:31;;;;;;;6.70;3.78;;;19.70;82.10;;;;;;5094334;28;20020;-14
2022/09/10 06:45:57;;;;;;;7.72;4.50;;;20.00;82.30;;;;;;5094552;28;20036;-15
2022/09/10 06:48:27;;;;;;;5.10;3.85;;;20.20;80.70;;;;;;5094587;28;20099;-14
2022/09/10 06:50:55;;;;;;;9.10;4.63;;;20.40;80.20;;;;;;5092184;28;20081;-15
2022/09/10 06:53:22;;;;;;;6.57;3.80;;;20.60;80.60;;;;;;5094153;28;20024;-15
2022/09/10 06:55:50;;;;;;;4.68;3.78;;;20.80;79.90;;;;;;5094133;28;20028;-14
2022/09/10 06:58:18;;;;;;;7.90;4.30;;;20.90;78.80;;;;;;5094108;28;20109;-15
2022/09/10 07:00:49;;;;;;;5.22;3.65;;;21.10;79.10;;;;;;5094026;28;20036;-15
2022/09/10 07:03:16;;;;;;;7.43;4.57;;;21.20;78.30;;;;;;5094339;28;20012;-15
2022/09/10 07:05:44;;;;;;;7.07;4.50;;;21.30;77.40;;;;;;5094183;28;20032;-15
2022/09/10 07:08:17;;;;;;;8.07;4.13;;;21.20;76.00;;;;;;5093905;28;20024;-14
2022/09/10 07:10:44;;;;;;;6.27;4.23;;;21.20;77.10;;;;;;5093879;28;20071;-15
2022/09/10 07:13:12;;;;;;;7.70;4.95;;;21.30;76.70;;;;;;5093619;28;20023;-15
2022/09/10 07:15:45;;;;;;;5.70;3.55;;;21.40;76.40;;;;;;5093975;28;20028;-14
2022/09/10 07:18:15;;;;;;;4.72;3.55;;;21.40;76.40;;;;;;5094033;28;20039;-14
2022/09/10 07:20:45;;;;;;;3.90;3.45;;;21.50;76.70;;;;;;5092385;28;20016;-14
2022/09/10 07:23:17;;;;;;;8.45;4.43;;;21.70;76.40;;;;;;5093685;28;20027;-14
2022/09/10 07:25:44;;;;;;;6.40;3.72;;;22.00;75.80;;;;;;5093846;28;20430;-14
2022/09/10 07:28:14;;;;;;;5.80;3.67;;;22.20;74.30;;;;;;5093370;28;20073;-15
2022/09/10 07:30:41;;;;;;;3.50;2.80;;;22.40;74.50;;;;;;5093712;28;20063;-15
2022/09/10 07:33:10;;;;;;;5.30;3.17;;;22.50;74.30;;;;;;5093343;28;20907;-14
2022/09/10 07:35:37;;;;;;;5.90;3.28;;;22.70;73.70;;;;;;5093707;28;20546;-15
2022/09/10 07:38:05;;;;;;;5.13;3.70;;;22.90;73.00;;;;;;5093794;28;20108;-14
2022/09/10 07:40:32;;;;;;;3.60;2.80;;;23.20;72.50;;;;;;5093396;28;20019;-14
2022/09/10 07:42:59;;;;;;;6.05;2.40;;;23.40;72.30;;;;;;5093487;28;20102;-15
2022/09/10 07:45:27;;;;;;;5.10;2.40;;;23.50;71.20;;;;;;5093738;28;20020;-15
2022/09/10 07:47:53;;;;;;;6.80;2.53;;;23.70;69.80;;;;;;5093292;28;20024;-15
2022/09/10 07:50:19;;;;;;;3.55;2.13;;;23.70;69.50;;;;;;5093398;28;20073;-15
2022/09/10 07:52:45;;;;;;;1.88;1.77;;;23.70;69.60;;;;;;5093477;28;20099;-15
2022/09/10 07:55:12;;;;;;;3.63;2.20;;;23.80;69.60;;;;;;5091849;28;20043;-14
2022/09/10 07:57:39;;;;;;;3.15;2.10;;;24.00;69.10;;;;;;5093448;28;20141;-14
2022/09/10 08:00:13;;;;;;;2.97;1.88;;;24.30;68.70;;;;;;5093260;28;20020;-15
2022/09/10 08:02:43;;;;;;;2.53;2.00;;;24.70;68.00;;;;;;5096736;28;20379;-14
2022/09/10 08:05:10;;;;;;;2.13;1.60;;;25.10;66.30;;;;;;5097212;28;20036;-15
2022/09/10 08:07:37;;;;;;;4.60;1.92;;;25.50;65.30;;;;;;5097920;28;20024;-15
2022/09/10 08:10:08;;;;;;;3.42;1.73;;;25.90;64.40;;;;;;5097211;28;20369;-15
2022/09/10 08:12:35;;;;;;;5.57;1.50;;;26.20;62.10;;;;;;5097364;28;20024;-14
2022/09/10 08:15:01;;;;;;;2.72;1.30;;;26.20;62.10;;;;;;5097256;28;20030;-14
2022/09/10 08:17:30;;;;;;;2.47;1.30;;;26.30;57.80;;;;;;5097836;28;20114;-15
2022/09/10 08:19:58;;;;;;;2.13;1.25;;;26.50;58.70;;;;;;5097395;28;20028;-15
2022/09/10 08:22:24;;;;;;;2.25;1.35;;;26.80;58.00;;;;;;5097086;28;20107;-15
2022/09/10 08:24:50;;;;;;;1.45;1.20;;;27.00;57.20;;;;;;5097127;28;20107;-15
2022/09/10 08:27:16;;;;;;;2.88;2.05;;;27.00;57.20;;;;;;5097264;28;20115;-15
2022/09/10 08:29:43;;;;;;;2.33;1.50;;;26.80;57.10;;;;;;5096848;28;20040;-15
2022/09/10 08:32:13;;;;;;;2.20;1.50;;;26.60;57.20;;;;;;5097190;28;20028;-16
2022/09/10 08:34:39;;;;;;;1.77;1.30;;;26.50;58.20;;;;;;5097040;28;20399;-15
2022/09/10 08:37:05;;;;;;;1.95;1.20;;;26.70;58.20;;;;;;5096932;28;20051;-15
2022/09/10 08:39:31;;;;;;;2.70;1.50;;;26.90;57.10;;;;;;5097056;28;20074;-15
2022/09/10 08:42:06;;;;;;;2.25;1.50;;;27.30;56.50;;;;;;5097022;28;20471;-15
2022/09/10 08:45:18;;;;;;;1.40;1.30;;;27.70;56.40;;;;;;5096565;28;20360;-15
2022/09/10 08:48:22;;;;;;;3.13;1.60;;;28.10;52.60;;;;;;5089120;28;20039;-15
2022/09/10 08:51:11;;;;;;;3.58;1.35;;;28.40;49.60;;;;;;5096680;28;20036;-15
2022/09/10 08:53:56;;;;;;;1.63;1.52;;;28.60;51.40;;;;;;5096663;28;20568;-15
2022/09/10 08:56:23;;;;;;;2.22;1.30;;;28.80;47.50;;;;;;5096791;28;20080;-15
2022/09/10 08:59:25;;;;;;;2.50;1.40;;;28.90;50.10;;;;;;5096467;28;20107;-15
2022/09/10 09:02:02;;;;;;;1.80;1.33;;;29.00;49.50;;;;;;5097019;28;20020;-15
2022/09/10 09:04:52;;;;;;;1.20;1.10;;;29.30;50.40;;;;;;5096505;28;20111;-15
2022/09/10 09:07:20;;;;;;;4.28;1.88;;;29.50;50.00;;;;;;5096576;28;20020;-15
2022/09/10 09:09:50;;;;;;;1.23;1.13;;;29.80;48.90;;;;;;5096361;28;20027;-14
2022/09/10 09:12:22;;;;;;;1.55;1.30;;;29.70;48.60;;;;;;5096196;28;20028;-14
2022/09/10 09:14:56;;;;;;;2.55;1.25;;;29.90;49.20;;;;;;5095513;28;20099;-16
2022/09/10 09:17:34;;;;;;;1.58;1.30;;;30.10;49.00;;;;;;5096331;28;20024;-15
2022/09/10 09:20:38;;;;;;;3.95;1.50;;;30.10;47.20;;;;;;5096374;28;20032;-14
2022/09/10 09:23:22;;;;;;;1.73;1.27;;;30.40;47.70;;;;;;5088471;28;20490;-15
2022/09/10 09:25:50;;;;;;;2.15;1.20;;;30.60;46.90;;;;;;5096267;28;20024;-15
2022/09/10 09:28:31;;;;;;;2.88;1.10;;;30.90;46.60;;;;;;5095793;28;20024;-15
2022/09/10 09:31:01;;;;;;;4.47;1.27;;;31.20;46.20;;;;;;5095495;28;20508;-15
2022/09/10 09:33:29;;;;;;;3.95;1.13;;;31.20;45.50;;;;;;5096077;28;20043;-15
2022/09/10 09:35:59;;;;;;;7.00;1.20;;;31.30;45.60;;;;;;5095994;28;20028;-15
2022/09/10 09:38:33;;;;;;;3.08;1.60;;;31.40;45.40;;;;;;5095727;28;20024;-15
2022/09/10 09:41:06;;;;;;;2.35;1.35;;;31.40;43.70;;;;;;5095725;28;20020;-15
2022/09/10 09:44:09;;;;;;;2.38;1.13;;;31.40;44.80;;;;;;5096077;28;20027;-15
2022/09/10 09:46:35;;;;;;;1.30;1.20;;;31.50;44.40;;;;;;5095695;28;20092;-15
2022/09/10 09:49:03;;;;;;;2.50;1.40;;;31.90;45.10;;;;;;5095282;28;20471;-15
2022/09/10 09:51:34;;;;;;;0.98;0.90;;;32.20;44.30;;;;;;5095328;28;20513;-15
2022/09/10 09:54:08;;;;;;;1.83;0.80;;;32.20;42.40;;;;;;5095706;28;20055;-15
2022/09/10 09:56:39;;;;;;;0.80;0.80;;;32.40;40.30;;;;;;5095345;28;20029;-15
2022/09/10 09:59:29;;;;;;;0.70;0.60;;;32.50;40.90;;;;;;5095271;28;20467;-15
2022/09/10 10:02:11;;;;;;;2.85;0.80;;;32.70;41.10;;;;;;5095457;28;20020;-15
2022/09/10 10:04:40;;;;;;;1.17;0.80;;;33.00;40.40;;;;;;5095385;28;20024;-15
2022/09/10 10:07:06;;;;;;;0.98;0.90;;;33.30;37.40;;;;;;5095234;28;20105;-15
2022/09/10 10:09:37;;;;;;;1.17;0.95;;;33.40;38.80;;;;;;5095295;28;20035;-15
2022/09/10 10:12:15;;;;;;;1.65;0.80;;;33.50;37.80;;;;;;5095337;28;20387;-15
2022/09/10 10:14:41;;;;;;;1.65;1.00;;;33.60;36.40;;;;;;5095200;28;20047;-15
2022/09/10 10:17:35;;;;;;;1.65;0.70;;;33.70;37.50;;;;;;5095023;28;20478;-15
2022/09/10 10:20:09;;;;;;;0.98;0.60;;;33.70;34.60;;;;;;5095221;28;20031;-14
2022/09/10 10:22:37;;;;;;;1.48;1.00;;;33.50;38.50;;;;;;5095090;28;20039;-14
2022/09/10 10:25:25;;;;;;;2.25;0.88;;;33.30;38.90;;;;;;5093462;28;20024;-14
2022/09/10 10:27:53;;;;;;;1.30;0.80;;;33.40;39.00;;;;;;5094259;28;20081;-14
2022/09/10 10:30:22;;;;;;;3.03;0.93;;;33.70;37.40;;;;;;5094283;28;20124;-14
2022/09/10 10:33:02;;;;;;;4.03;0.88;;;33.90;36.50;;;;;;5094335;28;20391;-16
2022/09/10 10:35:51;;;;;;;2.53;1.02;;;34.20;35.40;;;;;;5094817;28;20028;-14
2022/09/10 10:38:54;;;;;;;1.20;0.65;;;34.20;36.20;;;;;;5094770;28;20506;-15
2022/09/10 10:41:43;;;;;;;1.38;0.88;;;34.20;34.50;;;;;;5052320;28;20029;-15
2022/09/10 10:44:33;;;;;;;1.23;0.80;;;34.30;34.60;;;;;;5052277;28;20052;-15
2022/09/10 10:47:16;;;;;;;1.50;1.00;;;34.30;35.30;;;;;;5051971;28;20507;-15
2022/09/10 10:50:12;;;;;;;4.20;0.98;;;34.50;35.40;;;;;;5051878;28;20032;-15
2022/09/10 10:53:00;;;;;;;0.98;0.82;;;34.40;36.00;;;;;;5051973;28;20033;-15
2022/09/10 10:55:46;;;;;;;1.10;0.98;;;34.70;36.40;;;;;;5035293;28;20044;-15
2022/09/10 10:58:19;;;;;;;1.73;1.00;;;34.90;36.80;;;;;;5051410;28;20033;-15
2022/09/10 11:01:02;;;;;;;1.92;1.00;;;35.30;35.90;;;;;;5052043;28;20021;-15
2022/09/10 11:03:43;;;;;;;1.40;0.95;;;35.70;33.30;;;;;;5051758;28;20107;-15
2022/09/10 11:06:14;;;;;;;1.33;0.93;;;36.00;33.80;;;;;;5051790;28;20025;-15
2022/09/10 11:08:45;;;;;;;1.58;0.70;;;36.30;33.60;;;;;;5051606;28;20047;-15
2022/09/10 11:11:26;;;;;;;0.80;0.80;;;36.20;33.00;;;;;;5051397;28;20029;-14
2022/09/10 11:13:56;;;;;;;1.30;0.98;;;36.20;34.10;;;;;;5051596;28;20059;-15
2022/09/10 11:16:42;;;;;;;1.20;1.10;;;36.40;34.20;;;;;;5051386;28;20580;-14
2022/09/10 11:19:11;;;;;;;2.08;1.00;;;36.70;33.70;;;;;;5093589;28;20032;-14
2022/09/10 11:21:50;;;;;;;1.90;0.90;;;36.60;33.40;;;;;;5092418;28;20024;-14
2022/09/10 11:24:22;;;;;;;1.70;0.73;;;36.40;31.30;;;;;;5093732;28;20028;-15
2022/09/10 11:27:04;;;;;;;0.85;0.65;;;36.20;33.80;;;;;;5093424;28;20372;-17
2022/09/10 11:29:56;;;;;;;1.40;0.70;;;36.10;33.60;;;;;;5093562;28;20441;-15
2022/09/10 11:32:55;;;;;;;1.45;0.80;;;36.30;31.40;;;;;;5051285;28;20044;-15
2022/09/10 11:35:58;;;;;;;1.67;0.82;;;36.40;32.80;;;;;;5051063;28;20421;-14
2022/09/10 11:38:34;;;;;;;2.30;0.98;;;36.70;32.80;;;;;;5038465;28;20056;-14
2022/09/10 11:41:10;;;;;;;0.50;0.50;;;36.80;33.70;;;;;;5051026;28;20032;-14
2022/09/10 11:43:44;;;;;;;1.45;0.80;;;37.00;33.90;;;;;;5051148;28;20059;-15
2022/09/10 11:46:25;;;;;;;1.40;0.60;;;37.40;30.60;;;;;;5050988;28;20549;-15
2022/09/10 11:49:11;;;;;;;1.02;0.77;;;37.80;30.80;;;;;;5050910;28;20060;-15
2022/09/10 11:51:40;;;;;;;0.90;0.60;;;37.90;30.20;;;;;;5051181;28;20047;-15
2022/09/10 11:54:22;;;;;;;0.63;0.60;;;38.00;30.40;;;;;;5051005;28;20025;-15
2022/09/10 11:56:59;;;;;;;1.05;0.70;;;38.30;30.20;;;;;;5050872;28;20040;-17
2022/09/10 11:59:31;;;;;;;1.23;0.73;;;38.10;29.20;;;;;;5051622;28;20033;-15
2022/09/10 12:02:20;;;;;;;0.63;0.55;;;38.20;30.80;;;;;;5051061;28;20111;-15
2022/09/10 12:04:46;;;;;;;1.48;0.85;;;38.50;30.40;;;;;;5051119;28;20199;-15
2022/09/10 12:07:30;;;;;;;2.08;0.75;;;38.50;30.60;;;;;;5050636;28;20037;-15
2022/09/10 12:09:58;;;;;;;1.05;0.55;;;38.40;28.40;;;;;;5082150;28;20039;-15
2022/09/10 12:12:43;;;;;;;0.70;0.70;;;38.30;30.40;;;;;;5093115;28;20035;-15
2022/09/10 12:15:32;;;;;;;2.33;0.80;;;38.20;29.70;;;;;;5092852;28;20073;-15
2022/09/10 12:18:20;;;;;;;1.48;0.80;;;37.90;28.40;;;;;;5093107;28;20028;-15
2022/09/10 12:21:03;;;;;;;1.35;0.63;;;38.20;28.70;;;;;;5093342;28;20035;-15
2022/09/10 12:23:31;;;;;;;;;;;38.40;28.80;;;;;;5093426;28;20021;-15
2022/09/10 12:26:08;;;;;;;0.73;0.50;;;38.30;29.20;;;;;;5093347;28;19904;-15
2022/09/10 12:28:40;;;;;;;1.27;0.80;;;38.50;28.90;;;;;;5092918;28;20075;-15
2022/09/10 12:31:11;;;;;;;0.77;0.57;;;38.70;28.70;;;;;;5093306;28;20037;-15
2022/09/10 12:33:42;;;;;;;1.02;0.70;;;38.90;28.50;;;;;;5091745;28;20463;-15
2022/09/10 12:36:32;;;;;;;2.15;0.60;;;39.20;27.30;;;;;;5093200;28;20028;-15
2022/09/10 12:39:16;;;;;;;0.70;0.70;;;39.40;26.20;;;;;;5071140;28;20028;-15
2022/09/10 12:41:42;;;;;;;1.05;0.63;;;39.50;26.40;;;;;;5093129;28;20020;-15
2022/09/10 12:44:33;;;;;;;2.13;0.88;;;39.60;26.90;;;;;;5092883;28;20364;-15
2022/09/10 12:47:17;;;;;;;0.95;0.60;;;39.70;26.00;;;;;;5092807;28;20039;-15
2022/09/10 12:50:04;;;;;;;1.33;0.70;;;39.60;26.80;;;;;;5096108;28;20076;-15
2022/09/10 12:52:51;;;;;;;2.38;0.90;;;39.60;26.20;;;;;;5096746;28;20034;-15
2022/09/10 12:55:42;;;;;;;0.77;0.52;;;39.40;27.00;;;;;;5096844;28;20028;-15
2022/09/10 12:58:10;;;;;;;0.60;0.60;;;39.30;26.80;;;;;;5096490;28;20024;-15
2022/09/10 13:00:57;;;;;;;0.85;0.73;;;39.20;28.00;;;;;;5096447;28;20012;-15
2022/09/10 13:03:27;;;;;;;1.27;0.63;;;39.50;27.50;;;;;;5075369;28;20036;-15
2022/09/10 13:05:59;;;;;;;0.68;0.65;;;39.90;27.90;;;;;;5096558;28;20027;-15
2022/09/10 13:08:26;;;;;;;;;;;40.00;25.90;;;;;;5096947;28;20468;-15
2022/09/10 13:10:58;;;;;;;0.93;0.75;;;38.90;26.80;;;;;;5096211;28;19908;-15
2022/09/10 13:13:42;;;;;;;2.13;0.70;;;38.00;27.40;;;;;;5096492;28;20536;-14